Perryville, New York
Current Conditions -  °F | °C
As of 1:06 PM on Saturday 20 Dec 2014 (Local Time) from KSYR Reporting Station
Overcast Overcast  
Wind Chill: 28°   Ceiling: 2200
Heat Index: 28°   Visibility: 10mi
Dew Point: 22°   Wind: 0mph
Humidity: 78%   Direction: NA
Pressure: 30.28"   Gusts: NA
Location:  43.0803°N, 75.7643°W
Report Text: KSYR 201806Z 00000KT 10SM OVC022 M02/M06 A3028 RMK AO2 T10221056
Loading
Personal Weather Stations






























Interactive Weather Map New forecast layout! Learn more

10-Day Weather Forecast

Advertisements
Track Severe Weather on mobile